createdAt,value
2017-02-17T00:00:47.075Z,20.89
2017-02-17T00:01:47.014Z,21.08
2017-02-17T00:02:46.966Z,21.08
2017-02-17T00:03:46.889Z,20.89
2017-02-17T00:04:46.829Z,20.59
2017-02-17T00:05:46.772Z,20.69
2017-02-17T00:06:46.705Z,20.59
2017-02-17T00:07:46.640Z,20.79
2017-02-17T00:08:46.581Z,20.79
2017-02-17T00:09:46.520Z,20.79
2017-02-17T00:10:46.457Z,20.79
2017-02-17T00:11:46.393Z,20.59
2017-02-17T00:12:46.329Z,20.69
2017-02-17T00:13:46.267Z,20.69
2017-02-17T00:14:46.201Z,20.69
2017-02-17T00:15:46.170Z,20.69
2017-02-17T00:16:46.087Z,20.79
2017-02-17T00:17:46.025Z,20.89
2017-02-17T00:18:45.954Z,20.89
2017-02-17T00:19:45.891Z,20.79
2017-02-17T00:20:45.827Z,20.59
2017-02-17T00:21:45.765Z,20.79
2017-02-17T00:22:45.703Z,20.59
2017-02-17T00:23:45.640Z,20.59
2017-02-17T00:24:45.584Z,20.59
2017-02-17T00:25:45.529Z,20.69
2017-02-17T00:26:45.479Z,20.79
2017-02-17T00:27:45.400Z,20.89
2017-02-17T00:28:45.329Z,20.69
2017-02-17T00:29:45.274Z,20.79
2017-02-17T00:30:45.208Z,20.79
2017-02-17T00:31:45.141Z,20.98
2017-02-17T00:32:45.093Z,20.59
2017-02-17T00:33:45.022Z,20.69
2017-02-17T00:34:44.957Z,20.79
2017-02-17T00:35:44.893Z,20.59
2017-02-17T00:36:44.836Z,20.69
2017-02-17T00:37:44.767Z,20.59
2017-02-17T00:38:44.708Z,20.69
2017-02-17T00:39:44.650Z,20.5
2017-02-17T00:40:44.580Z,20.59
2017-02-17T00:41:44.517Z,20.59
2017-02-17T00:42:44.459Z,20.5
2017-02-17T00:43:44.395Z,20.59
2017-02-17T00:44:44.329Z,20.4
2017-02-17T00:45:44.271Z,20.4
2017-02-17T00:46:44.218Z,20.69
2017-02-17T00:47:44.145Z,20.59
2017-02-17T00:48:44.087Z,20.5
2017-02-17T00:49:44.023Z,20.5
2017-02-17T00:50:43.956Z,20.59
2017-02-17T00:51:43.893Z,20.59
2017-02-17T00:52:43.849Z,20.59
2017-02-17T00:53:43.781Z,20.5
2017-02-17T00:54:43.706Z,20.59
2017-02-17T00:55:43.275Z,20.59
2017-02-17T00:56:43.585Z,20.69
2017-02-17T00:57:43.521Z,20.31
2017-02-17T00:58:43.463Z,20.69
2017-02-17T00:59:43.393Z,20.4
2017-02-17T01:01:13.634Z,20.5
2017-02-17T01:02:13.153Z,20.59
2017-02-17T01:03:13.089Z,20.59
2017-02-17T01:04:13.025Z,20.31
2017-02-17T01:05:12.963Z,20.4
2017-02-17T01:06:12.898Z,20.4
2017-02-17T01:07:12.840Z,20.5
2017-02-17T01:08:12.795Z,20.4
2017-02-17T01:09:12.321Z,20.59
2017-02-17T01:10:12.657Z,20.4
2017-02-17T01:11:12.585Z,20.69
2017-02-17T01:12:12.523Z,20.4
2017-02-17T01:13:12.462Z,20.4
2017-02-17T01:14:12.008Z,20.5
2017-02-17T01:15:12.340Z,20.4
2017-02-17T01:16:12.275Z,20.4
2017-02-17T01:17:12.212Z,20.5
2017-02-17T01:18:12.149Z,20.4
2017-02-17T01:19:12.089Z,20.5
2017-02-17T01:20:12.023Z,20.59
2017-02-17T01:21:11.963Z,20.4
2017-02-17T01:22:12.184Z,20.4
2017-02-17T01:23:11.839Z,20.69
2017-02-17T01:24:11.776Z,20.5
2017-02-17T01:25:11.715Z,20.4
2017-02-17T01:26:11.653Z,20.59
2017-02-17T01:27:11.587Z,20.79
2017-02-17T01:28:11.142Z,20.4
2017-02-17T01:29:11.464Z,20.4
2017-02-17T01:30:11.413Z,20.69
2017-02-17T01:31:11.337Z,20.69
2017-02-17T01:32:11.278Z,20.59
2017-02-17T01:33:11.215Z,20.79
2017-02-17T01:34:11.438Z,20.69
2017-02-17T01:35:11.100Z,20.59
2017-02-17T01:36:11.026Z,20.59
2017-02-17T01:37:10.571Z,20.5
2017-02-17T01:38:10.905Z,20.4
2017-02-17T01:39:10.842Z,20.59
2017-02-17T01:40:10.783Z,20.4
2017-02-17T01:41:10.319Z,20.69
2017-02-17T01:42:10.953Z,20.89
2017-02-17T01:43:10.590Z,20.79
2017-02-17T01:44:10.541Z,20.59
2017-02-17T01:45:10.464Z,20.89
2017-02-17T01:46:10.413Z,20.5
2017-02-17T01:47:10.339Z,20.59
2017-02-17T01:48:09.891Z,20.59
2017-02-17T01:49:10.213Z,20.59
2017-02-17T01:50:10.153Z,20.59
2017-02-17T01:51:10.094Z,20.79
2017-02-17T01:52:09.633Z,20.79
2017-02-17T01:53:09.973Z,20.69
2017-02-17T01:54:09.902Z,20.5
2017-02-17T01:55:09.445Z,20.5
2017-02-17T01:56:09.444Z,20.5
2017-02-17T01:57:09.714Z,20.79
2017-02-17T01:58:09.656Z,20.5
2017-02-17T01:59:09.594Z,20.59
2017-02-17T02:00:09.535Z,20.5
2017-02-17T02:01:09.466Z,20.31
2017-02-17T02:02:09.007Z,20.4
2017-02-17T02:03:09.343Z,20.59
2017-02-17T02:04:09.286Z,20.59
2017-02-17T02:05:09.218Z,20.5
2017-02-17T02:06:09.153Z,20.5
2017-02-17T02:07:09.090Z,20.69
2017-02-17T02:08:09.030Z,20.5
2017-02-17T02:09:08.977Z,20.5
2017-02-17T02:10:08.901Z,20.4
2017-02-17T02:11:08.851Z,20.4
2017-02-17T02:12:08.779Z,20.69
2017-02-17T02:13:08.711Z,20.5
2017-02-17T02:14:08.653Z,20.79
2017-02-17T02:15:08.591Z,20.79
2017-02-17T02:16:08.530Z,20.4
2017-02-17T02:17:08.463Z,20.31
2017-02-17T02:18:08.408Z,20.69
2017-02-17T02:19:08.633Z,20.69
2017-02-17T02:20:08.281Z,20.4
2017-02-17T02:21:08.214Z,20.4
2017-02-17T02:22:08.152Z,20.31
2017-02-17T02:23:08.091Z,20.31
2017-02-17T02:24:08.036Z,20.89
2017-02-17T02:25:07.973Z,20.59
2017-02-17T02:26:07.915Z,20.4
2017-02-17T02:27:07.850Z,20.59
2017-02-17T02:28:07.778Z,20.5
2017-02-17T02:29:07.728Z,20.31
2017-02-17T02:30:07.654Z,20.69
2017-02-17T02:31:07.591Z,20.79
2017-02-17T02:32:07.535Z,20.31
2017-02-17T02:33:07.467Z,20.31
2017-02-17T02:34:07.415Z,20.89
2017-02-17T02:35:07.341Z,20.69
2017-02-17T02:36:07.279Z,20.31
2017-02-17T02:37:07.232Z,20.5
2017-02-17T02:38:07.163Z,20.5
2017-02-17T02:39:07.095Z,20.31
2017-02-17T02:40:07.034Z,20.31
2017-02-17T02:41:06.973Z,20.31
2017-02-17T02:42:06.904Z,20.59
2017-02-17T02:43:06.840Z,20.4
2017-02-17T02:44:06.791Z,20.4
2017-02-17T02:45:06.716Z,20.21
2017-02-17T02:46:06.661Z,20.31
2017-02-17T02:47:06.198Z,20.69
2017-02-17T02:48:06.532Z,20.21
2017-02-17T02:49:06.478Z,20.4
2017-02-17T02:50:06.403Z,20.59
2017-02-17T02:51:06.339Z,20.59
2017-02-17T02:52:05.893Z,20.31
2017-02-17T02:53:06.215Z,20.4
2017-02-17T02:54:06.154Z,20.31
2017-02-17T02:55:06.100Z,20.31
2017-02-17T02:56:06.034Z,20.5
2017-02-17T02:57:05.972Z,20.4
2017-02-17T02:58:05.902Z,20.31
2017-02-17T02:59:06.142Z,20.31
2017-02-17T03:00:05.781Z,20.31
2017-02-17T03:01:05.718Z,20.31
2017-02-17T03:02:05.260Z,20.31
2017-02-17T03:03:05.591Z,20.31
2017-02-17T03:04:05.529Z,20.4
2017-02-17T03:05:05.474Z,20.4
2017-02-17T03:06:05.404Z,20.4
2017-02-17T03:07:05.341Z,20.31
2017-02-17T03:08:05.280Z,20.5
2017-02-17T03:09:05.521Z,20.21
2017-02-17T03:10:04.762Z,20.31
2017-02-17T03:11:05.100Z,20.31
2017-02-17T03:12:05.038Z,20.31
2017-02-17T03:13:04.978Z,20.31
2017-02-17T03:14:04.915Z,20.31
2017-02-17T03:15:04.846Z,20.31
2017-02-17T03:16:04.784Z,20.21
2017-02-17T03:17:04.719Z,20.4
2017-02-17T03:18:04.654Z,20.31
2017-02-17T03:19:04.198Z,20.31
2017-02-17T03:20:04.532Z,20.4
2017-02-17T03:21:04.466Z,20.31
2017-02-17T03:22:04.406Z,20.21
2017-02-17T03:23:04.343Z,20.31
2017-02-17T03:24:04.281Z,20.21
2017-02-17T03:25:04.226Z,20.5
2017-02-17T03:26:04.168Z,20.31
2017-02-17T03:27:04.134Z,20.31
2017-02-17T03:28:03.642Z,20.21
2017-02-17T03:29:03.968Z,20.4
2017-02-17T03:30:03.911Z,20.21
2017-02-17T03:31:03.862Z,20.31
2017-02-17T03:32:03.786Z,20.31
2017-02-17T03:33:03.723Z,20.21
2017-02-17T03:34:03.699Z,20.21
2017-02-17T03:35:03.589Z,20.31
2017-02-17T03:36:03.530Z,20.21
2017-02-17T03:37:03.473Z,20.31
2017-02-17T03:38:03.412Z,20.4
2017-02-17T03:39:03.341Z,20.31
2017-02-17T03:40:03.278Z,20.21
2017-02-17T03:41:03.218Z,20.21
2017-02-17T03:42:03.149Z,20.31
2017-02-17T03:43:03.090Z,19.92
2017-02-17T03:44:03.030Z,20.31
2017-02-17T03:45:02.965Z,20.21
2017-02-17T03:46:02.904Z,19.92
2017-02-17T03:47:03.142Z,20.01
2017-02-17T03:48:02.791Z,20.4
2017-02-17T03:49:02.725Z,20.4
2017-02-17T03:50:02.651Z,20.31
2017-02-17T03:51:02.594Z,20.4
2017-02-17T03:52:02.527Z,20.4
2017-02-17T03:53:02.469Z,20.5
2017-02-17T03:54:02.401Z,20.11
2017-02-17T03:55:02.643Z,20.01
2017-02-17T03:56:02.282Z,20.31
2017-02-17T03:57:02.512Z,20.5
2017-02-17T03:58:02.173Z,20.4
2017-02-17T03:59:02.104Z,20.4
2017-02-17T04:00:02.028Z,20.4
2017-02-17T04:01:01.967Z,20.31
2017-02-17T04:02:01.911Z,20.31
2017-02-17T04:03:01.840Z,20.21
2017-02-17T04:04:01.780Z,20.5
2017-02-17T04:05:01.723Z,20.4
2017-02-17T04:06:01.261Z,20.21
2017-02-17T04:07:01.591Z,20.11
2017-02-17T04:08:01.530Z,20.4
2017-02-17T04:09:01.465Z,20.21
2017-02-17T04:10:01.411Z,20.11
2017-02-17T04:11:01.357Z,20.21
2017-02-17T04:12:01.281Z,20.21
2017-02-17T04:13:01.220Z,20.21
2017-02-17T04:14:01.156Z,20.11
2017-02-17T04:15:01.091Z,20.31
2017-02-17T04:16:01.036Z,20.11
2017-02-17T04:17:00.968Z,20.4
2017-02-17T04:18:00.906Z,20.21
2017-02-17T04:19:00.848Z,20.4
2017-02-17T04:20:00.782Z,20.21
2017-02-17T04:21:00.719Z,20.4
2017-02-17T04:22:00.653Z,20.21
2017-02-17T04:23:00.600Z,20.31
2017-02-17T04:24:00.528Z,20.21
2017-02-17T04:25:00.074Z,20.21
2017-02-17T04:26:00.405Z,20.31
2017-02-17T04:27:00.355Z,20.21
2017-02-17T04:27:59.887Z,20.11
2017-02-17T04:29:00.229Z,20.11
2017-02-17T04:30:00.455Z,20.31
2017-02-17T04:31:00.090Z,20.21
2017-02-17T04:32:00.028Z,20.31
2017-02-17T04:32:59.974Z,20.01
2017-02-17T04:33:59.904Z,20.21
2017-02-17T04:34:59.850Z,20.31
2017-02-17T04:35:59.777Z,20.31
2017-02-17T04:36:59.722Z,20.21
2017-02-17T04:37:59.654Z,20.31
2017-02-17T04:38:59.591Z,20.31
2017-02-17T04:39:59.543Z,20.11
2017-02-17T04:40:59.466Z,20.11
2017-02-17T04:41:59.408Z,20.31
2017-02-17T04:42:59.339Z,20.31
2017-02-17T04:43:59.283Z,20.21
2017-02-17T04:44:59.216Z,20.4
2017-02-17T04:45:59.443Z,20.31
2017-02-17T04:46:59.098Z,20.31
2017-02-17T04:47:59.037Z,20.59
2017-02-17T04:48:58.972Z,20.01
2017-02-17T04:49:58.922Z,20.31
2017-02-17T04:50:58.840Z,20.21
2017-02-17T04:51:58.779Z,20.31
2017-02-17T04:52:58.760Z,20.31
2017-02-17T04:53:58.655Z,20.59
2017-02-17T04:54:58.596Z,19.92
2017-02-17T04:55:58.526Z,20.31
2017-02-17T04:56:58.466Z,20.11
2017-02-17T04:57:58.405Z,20.59
2017-02-17T04:58:58.346Z,20.59
2017-02-17T04:59:58.276Z,20.59
2017-02-17T05:00:58.226Z,20.4
2017-02-17T05:01:58.168Z,20.21
2017-02-17T05:02:58.092Z,20.31
2017-02-17T05:03:58.033Z,20.31
2017-02-17T05:04:57.972Z,20.11
2017-02-17T05:05:57.916Z,20.4
2017-02-17T05:06:57.853Z,20.31
2017-02-17T05:07:57.788Z,20.4
2017-02-17T05:08:57.724Z,20.01
2017-02-17T05:09:57.689Z,20.4
2017-02-17T05:10:57.594Z,20.11
2017-02-17T05:11:57.147Z,20.5
2017-02-17T05:12:57.464Z,20.11
2017-02-17T05:13:57.416Z,20.31
2017-02-17T05:14:57.354Z,20.4
2017-02-17T05:15:57.287Z,20.31
2017-02-17T05:16:57.216Z,20.31
2017-02-17T05:17:57.162Z,20.21
2017-02-17T05:18:57.100Z,20.11
2017-02-17T05:19:57.028Z,20.21
2017-02-17T05:20:56.966Z,20.31
2017-02-17T05:21:56.909Z,20.01
2017-02-17T05:22:56.839Z,20.4
2017-02-17T05:23:56.787Z,20.31
2017-02-17T05:24:56.716Z,20.21
2017-02-17T05:25:56.665Z,20.21
2017-02-17T05:26:56.589Z,20.31
2017-02-17T05:27:56.529Z,20.31
2017-02-17T05:28:56.483Z,20.21
2017-02-17T05:29:56.416Z,20.21
2017-02-17T05:30:56.351Z,20.21
2017-02-17T05:31:56.282Z,20.11
2017-02-17T05:32:56.215Z,20.21
2017-02-17T05:33:56.163Z,20.11
2017-02-17T05:34:56.088Z,20.21
2017-02-17T05:35:56.037Z,20.21
2017-02-17T05:36:55.973Z,20.21
2017-02-17T05:37:55.901Z,20.21
2017-02-17T05:38:55.841Z,20.21
2017-02-17T05:39:55.803Z,20.21
2017-02-17T05:40:55.715Z,20.31
2017-02-17T05:41:55.651Z,20.21
2017-02-17T05:42:55.603Z,20.21
2017-02-17T05:43:55.528Z,20.21
2017-02-17T05:44:55.468Z,20.21
2017-02-17T05:45:55.422Z,20.21
2017-02-17T05:46:55.642Z,20.21
2017-02-17T05:47:55.287Z,20.01
2017-02-17T05:48:55.227Z,20.21
2017-02-17T05:49:55.153Z,20.21
2017-02-17T05:50:55.091Z,20.11
2017-02-17T05:51:55.027Z,20.21
2017-02-17T05:52:54.968Z,20.21
2017-02-17T05:53:54.900Z,20.21
2017-02-17T05:54:54.841Z,20.11
2017-02-17T05:55:54.783Z,20.21
2017-02-17T05:56:54.716Z,20.11
2017-02-17T05:57:54.654Z,20.11
2017-02-17T05:58:54.597Z,20.31
2017-02-17T05:59:54.542Z,20.11
2017-02-17T06:00:54.475Z,20.21
2017-02-17T06:01:54.404Z,20.11
2017-02-17T06:02:54.341Z,20.31
2017-02-17T06:03:54.281Z,20.21
2017-02-17T06:04:54.223Z,20.31
2017-02-17T06:05:54.164Z,20.21
2017-02-17T06:06:54.091Z,20.11
2017-02-17T06:07:54.031Z,20.11
2017-02-17T06:08:53.973Z,20.21
2017-02-17T06:09:53.903Z,20.21
2017-02-17T06:10:53.847Z,20.11
2017-02-17T06:11:53.777Z,20.21
2017-02-17T06:12:53.723Z,20.21
2017-02-17T06:13:53.661Z,20.31
2017-02-17T06:14:53.594Z,20.21
2017-02-17T06:15:53.530Z,20.21
2017-02-17T06:16:53.466Z,20.11
2017-02-17T06:17:53.416Z,20.21
2017-02-17T06:18:53.348Z,20.11
2017-02-17T06:19:53.292Z,20.21
2017-02-17T06:20:53.214Z,20.21
2017-02-17T06:21:53.153Z,20.21
2017-02-17T06:22:53.089Z,20.21
2017-02-17T06:23:53.032Z,20.21
2017-02-17T06:24:52.963Z,20.21
2017-02-17T06:25:52.901Z,20.21
2017-02-17T06:26:52.854Z,20.21
2017-02-17T06:27:52.774Z,20.11
2017-02-17T06:28:52.713Z,20.11
2017-02-17T06:29:52.653Z,20.21
2017-02-17T06:30:52.589Z,20.21
2017-02-17T06:31:52.528Z,20.21
2017-02-17T06:32:52.464Z,20.21
2017-02-17T06:33:52.399Z,20.21
2017-02-17T06:34:52.344Z,20.11
2017-02-17T06:35:52.276Z,20.11
2017-02-17T06:36:52.221Z,20.01
2017-02-17T06:37:52.151Z,20.11
2017-02-17T06:38:52.089Z,20.01
2017-02-17T06:39:52.027Z,19.92
2017-02-17T06:40:52.261Z,20.01
2017-02-17T06:41:51.904Z,20.01
2017-02-17T06:42:51.848Z,20.21
2017-02-17T06:43:51.783Z,19.82
2017-02-17T06:44:51.711Z,20.01
2017-02-17T06:45:51.652Z,19.82
2017-02-17T06:46:51.587Z,20.01
2017-02-17T06:47:51.522Z,19.92
2017-02-17T06:48:51.748Z,19.82
2017-02-17T06:49:51.400Z,19.82
2017-02-17T06:50:51.337Z,19.92
2017-02-17T06:51:51.274Z,19.92
2017-02-17T06:52:51.517Z,20.01
2017-02-17T06:53:51.154Z,19.92
2017-02-17T06:54:51.091Z,19.82
2017-02-17T06:55:51.034Z,19.82
2017-02-17T06:56:50.962Z,19.92
2017-02-17T06:57:50.910Z,19.92
2017-02-17T06:58:50.836Z,19.92
2017-02-17T06:59:50.384Z,19.82
2017-02-17T07:00:50.727Z,19.92
2017-02-17T07:01:50.649Z,19.92
2017-02-17T07:02:50.588Z,19.82
2017-02-17T07:03:50.524Z,19.92
2017-02-17T07:04:50.462Z,19.82
2017-02-17T07:05:50.399Z,19.82
2017-02-17T07:06:50.335Z,19.82
2017-02-17T07:07:50.283Z,19.92
2017-02-17T07:08:50.211Z,19.82
2017-02-17T07:09:50.151Z,19.92
2017-02-17T07:10:50.090Z,19.92
2017-02-17T07:11:50.024Z,19.92
2017-02-17T07:12:49.975Z,19.73
2017-02-17T07:13:49.898Z,19.82
2017-02-17T07:14:49.836Z,19.92
2017-02-17T07:15:49.773Z,19.82
2017-02-17T07:16:49.708Z,19.92
2017-02-17T07:17:49.654Z,19.92
2017-02-17T07:18:49.593Z,19.82
2017-02-17T07:19:49.522Z,20.01
2017-02-17T07:20:49.458Z,19.92
2017-02-17T07:21:49.686Z,19.92
2017-02-17T07:22:49.339Z,19.82
2017-02-17T07:23:49.277Z,19.92
2017-02-17T07:24:48.887Z,19.82
2017-02-17T07:25:49.156Z,19.92
2017-02-17T07:26:49.088Z,19.92
2017-02-17T07:27:49.021Z,19.82
2017-02-17T07:28:48.969Z,20.01
2017-02-17T07:29:48.912Z,19.92
2017-02-17T07:30:48.833Z,20.01
2017-02-17T07:31:48.772Z,19.92
2017-02-17T07:32:48.711Z,20.01
2017-02-17T07:33:48.648Z,20.01
2017-02-17T07:34:48.597Z,20.01
2017-02-17T07:35:48.821Z,20.21
2017-02-17T07:36:48.468Z,20.11
2017-02-17T07:37:48.398Z,20.11
2017-02-17T07:38:48.335Z,20.21
2017-02-17T07:39:48.270Z,20.21
2017-02-17T07:40:48.219Z,20.21
2017-02-17T07:41:48.147Z,20.11
2017-02-17T07:42:48.083Z,20.21
2017-02-17T07:43:48.022Z,20.21
2017-02-17T07:44:47.960Z,20.31
2017-02-17T07:45:48.195Z,20.31
2017-02-17T07:46:47.833Z,20.11
2017-02-17T07:47:47.384Z,20.21
2017-02-17T07:48:47.710Z,20.31
2017-02-17T07:49:47.660Z,20.31
2017-02-17T07:50:47.583Z,20.01
2017-02-17T07:51:47.531Z,20.31
2017-02-17T07:52:47.459Z,20.31
2017-02-17T07:53:47.397Z,20.31
2017-02-17T07:54:47.637Z,20.31
2017-02-17T07:55:47.270Z,20.21
2017-02-17T07:56:47.217Z,20.21
2017-02-17T07:57:47.156Z,20.21
2017-02-17T07:58:47.083Z,20.21
2017-02-17T07:59:47.023Z,20.21
2017-02-17T08:00:46.967Z,20.01
2017-02-17T08:01:46.895Z,20.4
2017-02-17T08:02:46.836Z,20.31
2017-02-17T08:03:46.770Z,20.4
2017-02-17T08:04:46.707Z,20.4
2017-02-17T08:05:46.651Z,20.4
2017-02-17T08:06:46.597Z,20.21
2017-02-17T08:07:46.520Z,20.31
2017-02-17T08:08:46.746Z,20.21
2017-02-17T08:09:46.397Z,20.11
2017-02-17T08:10:46.349Z,19.92
2017-02-17T08:11:46.565Z,20.01
2017-02-17T08:12:46.209Z,20.4
2017-02-17T08:13:46.146Z,20.31
2017-02-17T08:14:46.089Z,20.4
2017-02-17T08:15:46.025Z,20.4
2017-02-17T08:16:45.958Z,20.11
2017-02-17T08:17:45.897Z,20.4
2017-02-17T08:18:45.845Z,20.31
2017-02-17T08:19:45.772Z,20.31
2017-02-17T08:20:45.709Z,20.01
2017-02-17T08:21:45.648Z,20.31
2017-02-17T08:22:45.227Z,20.4
2017-02-17T08:23:45.525Z,20.21
2017-02-17T08:24:45.460Z,20.31
2017-02-17T08:25:45.672Z,20.31
2017-02-17T08:26:45.364Z,20.31
2017-02-17T08:27:45.270Z,20.4
2017-02-17T08:28:45.209Z,20.21
2017-02-17T08:29:44.763Z,20.4
2017-02-17T08:30:45.434Z,20.4
2017-02-17T08:31:45.024Z,20.59
2017-02-17T08:32:44.959Z,20.4
2017-02-17T08:33:44.905Z,20.31
2017-02-17T08:34:44.872Z,20.4
2017-02-17T08:35:44.778Z,20.31
2017-02-17T08:36:44.720Z,20.31
2017-02-17T08:37:44.649Z,20.4
2017-02-17T08:38:44.585Z,20.59
2017-02-17T08:39:44.522Z,20.89
2017-02-17T08:40:44.461Z,20.59
2017-02-17T08:41:44.396Z,20.5
2017-02-17T08:42:44.335Z,20.79
2017-02-17T08:43:44.271Z,20.5
2017-02-17T08:44:44.210Z,20.59
2017-02-17T08:45:43.761Z,20.69
2017-02-17T08:46:44.377Z,20.69
2017-02-17T08:47:44.322Z,20.79
2017-02-17T08:48:44.006Z,20.4
2017-02-17T08:49:43.909Z,20.5
2017-02-17T08:50:43.846Z,20.59
2017-02-17T08:51:43.812Z,20.59
2017-02-17T08:52:43.709Z,20.59
2017-02-17T08:53:43.654Z,20.5
2017-02-17T08:54:43.613Z,20.89
2017-02-17T08:55:43.537Z,20.79
2017-02-17T08:56:43.460Z,20.59
2017-02-17T08:57:43.411Z,20.69
2017-02-17T08:58:43.656Z,20.79
2017-02-17T08:59:43.278Z,20.79
2017-02-17T09:00:43.234Z,20.59
2017-02-17T09:01:43.156Z,20.59
2017-02-17T09:02:42.751Z,21.08
2017-02-17T09:03:43.027Z,20.98
2017-02-17T09:04:42.991Z,21.08
2017-02-17T09:05:43.200Z,21.56
2017-02-17T09:06:42.837Z,21.47
2017-02-17T09:07:43.075Z,21.27
2017-02-17T09:08:42.718Z,21.47
2017-02-17T09:09:42.661Z,21.66
2017-02-17T09:10:42.648Z,21.85
2017-02-17T09:11:42.552Z,21.75
2017-02-17T09:12:42.507Z,21.85
2017-02-17T09:13:42.399Z,21.66
2017-02-17T09:14:41.945Z,21.66
2017-02-17T09:15:42.523Z,22.33
2017-02-17T09:16:42.224Z,22.63
2017-02-17T09:17:42.149Z,22.63
2017-02-17T09:18:42.123Z,22.53
2017-02-17T09:19:42.087Z,22.53
2017-02-17T09:20:41.974Z,22.82
2017-02-17T09:21:41.901Z,23.01
2017-02-17T09:22:41.837Z,23.21
2017-02-17T09:23:41.803Z,23.3
2017-02-17T09:24:41.714Z,23.5
2017-02-17T09:25:41.662Z,22.91
2017-02-17T09:26:41.729Z,23.5
2017-02-17T09:27:41.525Z,22.91
2017-02-17T09:28:41.075Z,23.59
2017-02-17T09:29:41.447Z,23.69
2017-02-17T09:30:41.341Z,23.59
2017-02-17T09:31:41.277Z,23.32
2017-02-17T09:32:40.854Z,23.79
2017-02-17T09:33:41.506Z,23.9
2017-02-17T09:34:41.092Z,23.99
2017-02-17T09:35:41.032Z,24.18
2017-02-17T09:36:40.967Z,24.66
2017-02-17T09:37:40.911Z,24.18
2017-02-17T09:38:40.891Z,24.09
2017-02-17T09:39:40.782Z,23.8
2017-02-17T09:40:40.917Z,23.5
2017-02-17T09:41:40.832Z,23.69
2017-02-17T09:42:40.731Z,23.69
2017-02-17T09:43:40.804Z,23.6
2017-02-17T09:44:40.472Z,23.59
2017-02-17T09:45:40.410Z,24.09
2017-02-17T09:46:40.350Z,23.79
2017-02-17T09:47:40.283Z,23.5
2017-02-17T09:48:40.227Z,23.8
2017-02-17T09:49:40.168Z,23.5
2017-02-17T09:50:40.111Z,23.59
2017-02-17T09:51:40.056Z,23.59
2017-02-17T09:52:39.979Z,23.32
2017-02-17T09:53:39.914Z,23.3
2017-02-17T09:54:39.855Z,23.79
2017-02-17T09:55:39.791Z,23.59
2017-02-17T09:56:39.742Z,23.41
2017-02-17T09:57:39.952Z,23.12
2017-02-17T09:58:39.601Z,23.32
2017-02-17T09:59:39.542Z,23.21
2017-02-17T10:00:39.335Z,23.3
2017-02-17T10:01:39.417Z,23.32
2017-02-17T10:02:39.373Z,23.41
2017-02-17T10:03:39.309Z,23.6
2017-02-17T10:04:39.267Z,23.59
2017-02-17T10:05:39.199Z,22.82
2017-02-17T10:06:39.423Z,23.01
2017-02-17T10:07:39.042Z,22.92
2017-02-17T10:08:38.980Z,23.01
2017-02-17T10:09:38.918Z,23.21
2017-02-17T10:10:39.122Z,23.12
2017-02-17T10:11:38.804Z,23.12
2017-02-17T10:12:38.734Z,23.11
2017-02-17T10:13:38.669Z,23.01
2017-02-17T10:14:38.608Z,22.82
2017-02-17T10:15:38.793Z,22.72
2017-02-17T10:16:38.482Z,22.74
2017-02-17T10:17:38.434Z,22.64
2017-02-17T10:18:38.358Z,22.53
2017-02-17T10:19:38.581Z,22.74
2017-02-17T10:20:38.534Z,22.64
2017-02-17T10:21:38.177Z,22.72
2017-02-17T10:22:38.109Z,22.82
2017-02-17T10:23:38.064Z,22.54
2017-02-17T10:24:37.984Z,22.63
2017-02-17T10:25:37.920Z,22.64
2017-02-17T10:26:37.863Z,22.74
2017-02-17T10:27:37.804Z,22.64
2017-02-17T10:28:37.972Z,22.33
2017-02-17T10:29:37.679Z,22.44
2017-02-17T10:30:37.617Z,22.63
2017-02-17T10:31:37.580Z,22.43
2017-02-17T10:32:37.491Z,22.33
2017-02-17T10:33:37.428Z,22.24
2017-02-17T10:34:37.376Z,22.24
2017-02-17T10:35:37.300Z,22.33
2017-02-17T10:36:37.242Z,22.25
2017-02-17T10:37:37.253Z,22.33
2017-02-17T10:38:37.173Z,22.33
2017-02-17T10:39:37.073Z,22.43
2017-02-17T10:40:37.482Z,22.14
2017-02-17T10:41:36.933Z,22.33
2017-02-17T10:42:37.000Z,22.05
2017-02-17T10:43:36.814Z,22.24
2017-02-17T10:44:36.756Z,22.24
2017-02-17T10:45:37.031Z,22.14
2017-02-17T10:46:36.615Z,22.24
2017-02-17T10:47:36.555Z,22.24
2017-02-17T10:48:36.499Z,22.05
2017-02-17T10:49:36.426Z,22.24
2017-02-17T10:50:36.367Z,22.05
2017-02-17T10:51:36.611Z,22.14
2017-02-17T10:52:35.848Z,22.24
2017-02-17T10:53:36.177Z,22.24
2017-02-17T10:54:36.128Z,22.24
2017-02-17T10:55:36.056Z,22.24
2017-02-17T10:56:35.999Z,22.05
2017-02-17T10:57:35.539Z,22.24
2017-02-17T10:58:35.897Z,22.33
2017-02-17T10:59:35.804Z,22.33
2017-02-17T11:00:35.751Z,22.33
2017-02-17T11:01:35.686Z,22.24
2017-02-17T11:02:35.625Z,22.43
2017-02-17T11:03:35.558Z,22.43
2017-02-17T11:04:35.492Z,22.63
2017-02-17T11:05:35.433Z,22.63
2017-02-17T11:06:35.375Z,22.63
2017-02-17T11:07:35.307Z,22.53
2017-02-17T11:08:35.247Z,22.63
2017-02-17T11:09:35.215Z,22.53
2017-02-17T11:10:35.115Z,22.53
2017-02-17T11:11:35.067Z,22.82
2017-02-17T11:12:35.002Z,23.12
2017-02-17T11:13:34.945Z,23.12
2017-02-17T11:14:34.867Z,23.21
2017-02-17T11:15:34.804Z,23.5
2017-02-17T11:16:34.745Z,23.5
2017-02-17T11:17:34.720Z,22.91
2017-02-17T11:18:34.620Z,23.12
2017-02-17T11:19:34.856Z,23.22
2017-02-17T11:20:34.746Z,23.7
2017-02-17T11:21:34.433Z,23.9
2017-02-17T11:22:34.370Z,24.18
2017-02-17T11:23:34.309Z,23.9
2017-02-17T11:24:34.249Z,24.18
2017-02-17T11:25:34.185Z,23.9
2017-02-17T11:26:34.122Z,23.99
2017-02-17T11:27:34.072Z,24.28
2017-02-17T11:28:34.008Z,23.8
2017-02-17T11:29:33.936Z,24.96
2017-02-17T11:30:33.874Z,25.05
2017-02-17T11:31:33.819Z,25.15
2017-02-17T11:32:33.755Z,25.63
2017-02-17T11:33:33.695Z,25.73
2017-02-17T11:34:33.625Z,25.83
2017-02-17T11:35:33.575Z,25.93
2017-02-17T11:36:33.497Z,25.83
2017-02-17T11:37:33.447Z,26.03
2017-02-17T11:38:33.384Z,26.21
2017-02-17T11:39:33.320Z,26.41
2017-02-17T11:40:33.262Z,26.89
2017-02-17T11:41:33.210Z,26.51
2017-02-17T11:42:33.132Z,26.99
2017-02-17T11:43:33.067Z,26.79
2017-02-17T11:44:33.012Z,26.79
2017-02-17T11:45:33.243Z,26.89
2017-02-17T11:46:32.889Z,27.19
2017-02-17T11:47:32.823Z,26.89
2017-02-17T11:48:32.764Z,26.99
2017-02-17T11:49:32.697Z,27.37
2017-02-17T11:50:32.632Z,27.57
2017-02-17T11:51:32.574Z,27.57
2017-02-17T11:52:32.525Z,28.05
2017-02-17T11:53:32.455Z,27.96
2017-02-17T11:54:32.403Z,27.76
2017-02-17T11:55:32.321Z,27.67
2017-02-17T11:56:32.264Z,28.44
2017-02-17T11:57:31.819Z,28.64
2017-02-17T11:58:31.746Z,28.25
2017-02-17T11:59:32.083Z,28.15
2017-02-17T12:00:32.315Z,28.34
2017-02-17T12:01:31.959Z,27.37
2017-02-17T12:02:31.913Z,26.51
2017-02-17T12:03:31.829Z,26.21
2017-02-17T12:04:31.780Z,25.93
2017-02-17T12:05:31.316Z,26.03
2017-02-17T12:06:31.934Z,25.83
2017-02-17T12:07:31.597Z,25.93
2017-02-17T12:08:31.531Z,25.44
2017-02-17T12:09:31.461Z,25.25
2017-02-17T12:10:31.406Z,25.25
2017-02-17T12:11:31.638Z,25.15
2017-02-17T12:12:31.277Z,25.35
2017-02-17T12:13:31.427Z,25.05
2017-02-17T12:14:31.158Z,25.05
2017-02-17T12:15:31.341Z,25.05
2017-02-17T12:16:31.028Z,24.86
2017-02-17T12:17:30.967Z,24.57
2017-02-17T12:18:30.905Z,24.67
2017-02-17T12:19:30.854Z,24.28
2017-02-17T12:20:31.040Z,24.48
2017-02-17T12:21:30.720Z,24.18
2017-02-17T12:22:30.672Z,24.28
2017-02-17T12:23:30.895Z,24.48
2017-02-17T12:24:30.142Z,24.18
2017-02-17T12:25:30.517Z,24.18
2017-02-17T12:26:30.022Z,24.38
2017-02-17T12:27:30.346Z,24.09
2017-02-17T12:28:30.293Z,23.9
2017-02-17T12:29:30.248Z,23.9
2017-02-17T12:30:30.175Z,23.99
2017-02-17T12:31:30.099Z,23.9
2017-02-17T12:32:30.062Z,23.9
2017-02-17T12:33:29.981Z,23.6
2017-02-17T12:34:29.912Z,23.8
2017-02-17T12:35:29.855Z,23.41
2017-02-17T12:36:29.791Z,23.8
2017-02-17T12:37:29.745Z,23.6
2017-02-17T12:38:29.670Z,23.8
2017-02-17T12:39:29.605Z,23.8
2017-02-17T12:40:29.541Z,23.5
2017-02-17T12:41:29.483Z,23.41
2017-02-17T12:42:29.420Z,23.5
2017-02-17T12:43:29.369Z,23.6
2017-02-17T12:44:29.295Z,23.9
2017-02-17T12:45:29.245Z,23.7
2017-02-17T12:46:28.778Z,23.5
2017-02-17T12:47:29.128Z,23.8
2017-02-17T12:48:29.056Z,23.6
2017-02-17T12:49:28.983Z,23.8
2017-02-17T12:50:28.532Z,23.6
2017-02-17T12:51:28.868Z,23.8
2017-02-17T12:52:28.414Z,23.7
2017-02-17T12:53:28.745Z,23.5
2017-02-17T12:54:28.714Z,23.22
2017-02-17T12:55:28.613Z,23.12
2017-02-17T12:56:28.555Z,23.41
2017-02-17T12:57:28.505Z,23.22